createdAt,value
2022-10-20T00:02:09.618Z,10.32
2022-10-20T00:04:36.027Z,10.33
2022-10-20T00:07:02.458Z,10.37
2022-10-20T00:09:29.128Z,10.34
2022-10-20T00:11:55.689Z,10.41
2022-10-20T00:14:22.185Z,10.45
2022-10-20T00:16:48.624Z,10.35
2022-10-20T00:19:15.069Z,10.27
2022-10-20T00:21:41.490Z,10.24
2022-10-20T00:24:08.050Z,10.22
2022-10-20T00:26:34.509Z,10.28
2022-10-20T00:29:02.952Z,10.26
2022-10-20T00:31:29.832Z,10.33
2022-10-20T00:33:56.312Z,10.34
2022-10-20T00:36:23.390Z,10.29
2022-10-20T00:38:50.939Z,10.27
2022-10-20T00:41:19.871Z,10.26
2022-10-20T00:43:53.568Z,10.12
2022-10-20T00:46:22.636Z,10.14
2022-10-20T00:48:53.203Z,10.19
2022-10-20T00:51:22.740Z,10.20
2022-10-20T00:53:50.985Z,10.24
2022-10-20T00:56:17.462Z,10.16
2022-10-20T00:58:44.025Z,10.29
2022-10-20T01:01:11.488Z,10.15
2022-10-20T01:03:47.509Z,10.16
2022-10-20T01:08:47.254Z,10.09
2022-10-20T01:11:25.905Z,10.17
2022-10-20T01:14:19.851Z,10.13
2022-10-20T01:16:59.169Z,10.07
2022-10-20T01:19:39.515Z,10.14
2022-10-20T01:22:14.321Z,10.14
2022-10-20T01:24:50.884Z,10.08
2022-10-20T01:27:37.748Z,10.08
2022-10-20T01:30:19.197Z,10.02
2022-10-20T01:32:53.575Z,9.96
2022-10-20T01:35:22.997Z,9.94
2022-10-20T01:38:20.933Z,9.87
2022-10-20T01:41:09.717Z,9.87
2022-10-20T01:43:38.682Z,9.89
2022-10-20T01:46:06.622Z,9.85
2022-10-20T01:48:35.251Z,9.77
2022-10-20T01:51:02.481Z,9.75
2022-10-20T01:53:29.019Z,9.67
2022-10-20T01:55:56.993Z,9.70
2022-10-20T01:58:48.251Z,9.68
2022-10-20T02:01:34.497Z,9.61
2022-10-20T02:04:03.153Z,9.65
2022-10-20T02:07:08.090Z,9.63
2022-10-20T02:09:46.065Z,9.59
2022-10-20T02:12:17.722Z,9.61
2022-10-20T02:14:45.456Z,9.47
2022-10-20T02:17:14.929Z,9.53
2022-10-20T02:19:43.396Z,9.46
2022-10-20T02:22:11.510Z,9.47
2022-10-20T02:24:40.214Z,9.49
2022-10-20T02:27:22.114Z,9.49
2022-10-20T02:29:58.726Z,9.50
2022-10-20T02:32:25.672Z,9.53
2022-10-20T02:34:52.100Z,9.46
2022-10-20T02:37:18.517Z,9.51
2022-10-20T02:39:45.182Z,9.46
2022-10-20T02:42:12.626Z,9.55
2022-10-20T02:44:39.068Z,9.52
2022-10-20T02:47:05.625Z,9.41
2022-10-20T02:49:32.044Z,9.34
2022-10-20T02:51:58.544Z,9.38
2022-10-20T02:54:24.946Z,9.31
2022-10-20T02:56:51.330Z,9.42
2022-10-20T02:59:17.868Z,9.37
2022-10-20T03:01:44.936Z,9.34
2022-10-20T03:04:12.446Z,9.40
2022-10-20T03:06:40.197Z,9.28
2022-10-20T03:09:06.699Z,9.32
2022-10-20T03:11:33.201Z,9.28
2022-10-20T03:13:59.702Z,9.21
2022-10-20T03:16:26.353Z,9.25
2022-10-20T03:18:53.223Z,9.32
2022-10-20T03:21:19.709Z,9.33
2022-10-20T03:23:46.212Z,9.37
2022-10-20T03:26:12.707Z,9.24
2022-10-20T03:28:39.927Z,9.30
2022-10-20T03:31:07.090Z,9.28
2022-10-20T03:33:33.843Z,9.35
2022-10-20T03:36:00.589Z,9.32
2022-10-20T03:38:27.017Z,9.38
2022-10-20T03:40:53.498Z,9.38
2022-10-20T03:43:19.977Z,9.31
2022-10-20T03:45:46.368Z,9.19
2022-10-20T03:48:12.811Z,9.28
2022-10-20T03:50:40.335Z,9.34
2022-10-20T03:53:07.620Z,9.39
2022-10-20T03:55:33.998Z,9.42
2022-10-20T03:58:00.380Z,9.39
2022-10-20T04:00:26.928Z,9.45
2022-10-20T04:02:53.704Z,9.31
2022-10-20T04:05:20.675Z,9.37
2022-10-20T04:07:47.503Z,9.34
2022-10-20T04:10:15.160Z,9.34
2022-10-20T04:12:41.539Z,9.35
2022-10-20T04:15:08.530Z,9.25
2022-10-20T04:17:34.999Z,9.43
2022-10-20T04:20:01.510Z,9.41
2022-10-20T04:22:28.057Z,9.50
2022-10-20T04:24:54.518Z,9.38
2022-10-20T04:27:21.066Z,9.25
2022-10-20T04:29:47.879Z,9.26
2022-10-20T04:32:14.321Z,9.24
2022-10-20T04:34:40.728Z,9.24
2022-10-20T04:37:07.137Z,9.21
2022-10-20T04:39:33.563Z,9.22
2022-10-20T04:42:00.810Z,9.27
2022-10-20T04:44:27.273Z,9.26
2022-10-20T04:46:56.964Z,9.20
2022-10-20T04:49:23.741Z,9.29
2022-10-20T04:51:50.169Z,9.43
2022-10-20T04:54:16.646Z,9.31
2022-10-20T04:56:43.063Z,9.36
2022-10-20T04:59:12.720Z,9.36
2022-10-20T05:01:40.687Z,9.35
2022-10-20T05:04:07.372Z,9.42
2022-10-20T05:06:33.939Z,9.49
2022-10-20T05:09:02.459Z,9.44
2022-10-20T05:11:30.898Z,9.25
2022-10-20T05:13:57.451Z,9.30
2022-10-20T05:16:24.295Z,9.34
2022-10-20T05:18:52.307Z,9.38
2022-10-20T05:21:23.943Z,9.28
2022-10-20T05:23:58.559Z,9.27
2022-10-20T05:26:26.106Z,9.24
2022-10-20T05:28:52.576Z,9.23
2022-10-20T05:31:21.948Z,9.20
2022-10-20T05:33:50.636Z,9.17
2022-10-20T05:36:21.567Z,9.15
2022-10-20T05:38:49.372Z,9.04
2022-10-20T05:41:18.147Z,9.10
2022-10-20T05:43:52.543Z,9.11
2022-10-20T05:46:19.789Z,9.05
2022-10-20T05:48:47.065Z,9.06
2022-10-20T05:51:19.151Z,9.01
2022-10-20T05:53:47.063Z,9.01
2022-10-20T05:56:15.923Z,9.10
2022-10-20T05:58:43.569Z,8.97
2022-10-20T06:01:17.268Z,9.07
2022-10-20T06:04:00.962Z,9.19
2022-10-20T06:06:30.011Z,9.16
2022-10-20T06:08:58.758Z,9.17
2022-10-20T06:11:26.113Z,9.24
2022-10-20T06:13:53.305Z,9.30
2022-10-20T06:16:22.190Z,9.24
2022-10-20T06:18:48.729Z,9.33
2022-10-20T06:21:17.977Z,9.34
2022-10-20T06:23:47.414Z,9.27
2022-10-20T06:26:19.196Z,9.34
2022-10-20T06:28:48.542Z,9.30
2022-10-20T06:31:16.126Z,9.44
2022-10-20T06:33:43.449Z,9.49
2022-10-20T06:36:10.974Z,9.54
2022-10-20T06:38:38.600Z,9.63
2022-10-20T06:41:07.123Z,9.68
2022-10-20T06:43:33.907Z,9.63
2022-10-20T06:46:05.389Z,9.67
2022-10-20T06:48:33.071Z,9.86
2022-10-20T06:51:02.736Z,9.88
2022-10-20T06:53:30.048Z,9.97
2022-10-20T06:56:07.463Z,10.07
2022-10-20T06:58:35.490Z,10.15
2022-10-20T07:01:09.882Z,10.26
2022-10-20T07:03:38.470Z,10.21
2022-10-20T07:06:06.476Z,10.32
2022-10-20T07:08:34.326Z,10.48
2022-10-20T07:11:07.556Z,10.52
2022-10-20T07:13:35.508Z,10.75
2022-10-20T07:16:02.764Z,10.86
2022-10-20T07:18:29.882Z,10.85
2022-10-20T07:21:00.743Z,10.76
2022-10-20T07:23:29.173Z,10.87
2022-10-20T07:26:06.808Z,11.08
2022-10-20T07:28:34.272Z,11.11
2022-10-20T07:31:08.807Z,11.20
2022-10-20T07:33:35.905Z,11.18
2022-10-20T07:36:02.337Z,11.34
2022-10-20T07:38:29.784Z,11.37
2022-10-20T07:41:02.382Z,11.54
2022-10-20T07:43:29.178Z,11.52
2022-10-20T07:45:55.627Z,11.57
2022-10-20T07:48:22.103Z,11.52
2022-10-20T07:50:48.704Z,11.52
2022-10-20T07:53:15.109Z,11.60
2022-10-20T07:55:41.493Z,11.68
2022-10-20T07:58:08.016Z,11.81
2022-10-20T08:00:34.591Z,11.73
2022-10-20T08:03:01.079Z,11.89
2022-10-20T08:05:29.501Z,11.98
2022-10-20T08:07:58.309Z,11.87
2022-10-20T08:10:24.992Z,11.84
2022-10-20T08:12:51.681Z,12.11
2022-10-20T08:15:20.254Z,12.22
2022-10-20T08:17:46.662Z,12.03
2022-10-20T08:20:20.441Z,12.29
2022-10-20T08:22:48.905Z,12.08
2022-10-20T08:25:15.503Z,12.42
2022-10-20T08:27:42.238Z,12.26
2022-10-20T08:30:23.475Z,12.56
2022-10-20T08:32:52.620Z,12.72
2022-10-20T08:35:20.243Z,12.65
2022-10-20T08:37:46.650Z,12.55
2022-10-20T08:40:28.161Z,12.68
2022-10-20T08:42:54.853Z,12.64
2022-10-20T08:45:24.479Z,12.68
2022-10-20T08:47:54.097Z,12.66
2022-10-20T08:50:22.047Z,12.75
2022-10-20T08:52:54.255Z,12.76
2022-10-20T08:55:32.535Z,12.75
2022-10-20T08:58:04.969Z,12.93
2022-10-20T09:00:33.153Z,13.14
2022-10-20T09:03:13.841Z,12.96
2022-10-20T09:05:42.025Z,12.97
2022-10-20T09:08:08.715Z,13.02
2022-10-20T09:10:47.989Z,13.15
2022-10-20T09:13:25.720Z,13.39
2022-10-20T09:15:56.462Z,13.60
2022-10-20T09:18:23.126Z,13.60
2022-10-20T09:20:56.296Z,13.63
2022-10-20T09:23:42.940Z,13.76
2022-10-20T09:26:30.379Z,13.74
2022-10-20T09:29:16.476Z,13.60
2022-10-20T09:31:45.067Z,13.68
2022-10-20T09:34:32.608Z,13.91
2022-10-20T09:37:08.147Z,13.91
2022-10-20T09:39:49.198Z,14.13
2022-10-20T09:42:24.857Z,14.14
2022-10-20T09:45:01.108Z,14.26
2022-10-20T09:47:28.597Z,14.27
2022-10-20T09:50:01.049Z,14.69
2022-10-20T09:52:31.828Z,14.93
2022-10-20T09:55:26.790Z,15.11
2022-10-20T09:57:54.350Z,15.35
2022-10-20T10:00:37.228Z,15.27
2022-10-20T10:03:21.560Z,15.03
2022-10-20T10:05:59.385Z,15.03
2022-10-20T10:08:28.716Z,15.09
2022-10-20T10:11:01.586Z,15.22
2022-10-20T10:13:30.757Z,15.37
2022-10-20T10:16:02.938Z,15.60
2022-10-20T10:18:29.724Z,15.78
2022-10-20T10:21:02.576Z,15.86
2022-10-20T10:23:31.132Z,15.98
2022-10-20T10:26:00.683Z,15.92
2022-10-20T10:28:34.030Z,15.98
2022-10-20T10:31:22.377Z,15.87
2022-10-20T10:33:52.148Z,15.60
2022-10-20T10:36:26.769Z,15.76
2022-10-20T10:38:53.912Z,15.80
2022-10-20T10:41:44.973Z,15.44
2022-10-20T10:44:27.306Z,15.68
2022-10-20T10:47:14.805Z,15.92
2022-10-20T10:49:59.457Z,16.00
2022-10-20T10:52:51.025Z,16.13
2022-10-20T10:55:47.396Z,16.25
2022-10-20T10:58:25.445Z,16.43
2022-10-20T11:01:17.682Z,16.40
2022-10-20T11:04:06.209Z,16.44
2022-10-20T11:06:48.852Z,16.51
2022-10-20T11:09:38.518Z,16.12
2022-10-20T11:12:04.865Z,16.35
2022-10-20T11:14:54.525Z,16.17
2022-10-20T11:17:33.006Z,16.12
2022-10-20T11:20:19.788Z,16.17
2022-10-20T11:22:55.559Z,16.02
2022-10-20T11:25:33.560Z,16.16
2022-10-20T11:28:00.658Z,16.28
2022-10-20T11:30:27.493Z,16.72
2022-10-20T11:33:20.207Z,16.85
2022-10-20T11:36:03.995Z,17.14
2022-10-20T11:38:44.172Z,17.00
2022-10-20T11:41:35.311Z,16.80
2022-10-20T11:44:28.163Z,16.76
2022-10-20T11:46:58.638Z,16.82
2022-10-20T11:49:25.084Z,16.97
2022-10-20T11:52:14.111Z,17.32
2022-10-20T11:55:06.930Z,17.78
2022-10-20T11:57:39.439Z,17.81
2022-10-20T12:00:24.604Z,17.92
2022-10-20T12:03:09.456Z,17.88
2022-10-20T12:06:00.894Z,17.70
2022-10-20T12:08:37.356Z,17.28
2022-10-20T12:11:12.936Z,17.01
2022-10-20T12:14:07.201Z,17.19
2022-10-20T12:16:55.915Z,17.14
2022-10-20T12:19:25.639Z,17.14
2022-10-20T12:22:08.371Z,17.16
2022-10-20T12:24:34.807Z,17.37
2022-10-20T12:27:02.970Z,17.55
2022-10-20T12:29:32.180Z,17.69
2022-10-20T12:32:37.503Z,17.87
2022-10-20T12:35:24.034Z,17.86
2022-10-20T12:38:02.308Z,18.10
2022-10-20T12:40:55.089Z,18.00
2022-10-20T12:43:29.210Z,17.72
2022-10-20T12:46:05.148Z,17.62
2022-10-20T12:48:34.013Z,17.83
2022-10-20T12:51:07.985Z,18.05
2022-10-20T12:53:34.627Z,18.05
2022-10-20T12:56:07.009Z,18.09
2022-10-20T12:59:10.076Z,18.05
2022-10-20T13:02:21.835Z,17.71
2022-10-20T13:04:58.092Z,17.37
2022-10-20T13:07:46.560Z,17.21
2022-10-20T13:10:31.284Z,17.00
2022-10-20T13:13:03.664Z,17.07
2022-10-20T13:15:32.913Z,17.12
2022-10-20T13:18:02.457Z,17.15
2022-10-20T13:21:01.716Z,17.11
2022-10-20T13:23:38.738Z,17.09
2022-10-20T13:26:25.406Z,17.08
2022-10-20T13:28:53.652Z,17.04
2022-10-20T13:31:44.069Z,16.99
2022-10-20T13:34:18.698Z,16.93
2022-10-20T13:37:21.644Z,16.89
2022-10-20T13:40:27.640Z,16.99
2022-10-20T13:43:32.699Z,17.00
2022-10-20T13:46:08.020Z,17.04
2022-10-20T13:48:45.024Z,16.96
2022-10-20T13:51:25.755Z,16.91
2022-10-20T13:53:55.178Z,16.87
2022-10-20T13:56:35.458Z,16.96
2022-10-20T13:59:05.937Z,17.04
2022-10-20T14:01:35.672Z,16.95
2022-10-20T14:04:02.346Z,16.78
2022-10-20T14:06:36.321Z,16.78
2022-10-20T14:09:11.859Z,16.71
2022-10-20T14:11:39.040Z,16.82
2022-10-20T14:14:07.770Z,16.72
2022-10-20T14:16:34.184Z,16.77
2022-10-20T14:19:12.756Z,16.81
2022-10-20T14:21:49.309Z,16.79
2022-10-20T14:24:22.617Z,16.72
2022-10-20T14:26:49.799Z,16.67
2022-10-20T14:29:17.409Z,16.57
2022-10-20T14:31:45.918Z,16.50
2022-10-20T14:34:29.431Z,16.42
2022-10-20T14:36:56.873Z,16.36
2022-10-20T14:39:38.400Z,16.43
2022-10-20T14:42:19.638Z,16.35
2022-10-20T14:44:46.187Z,16.47
2022-10-20T14:47:13.963Z,16.52
2022-10-20T14:49:42.162Z,16.52
2022-10-20T14:52:20.382Z,16.55
2022-10-20T14:54:49.616Z,16.47
2022-10-20T14:57:16.315Z,16.60
2022-10-20T15:00:02.468Z,16.49
2022-10-20T15:02:39.974Z,16.54
2022-10-20T15:05:22.539Z,16.41
2022-10-20T15:07:49.267Z,16.33
2022-10-20T15:10:16.803Z,16.30
2022-10-20T15:12:46.261Z,16.29
2022-10-20T15:15:12.781Z,16.29
2022-10-20T15:17:43.620Z,16.13
2022-10-20T15:20:32.831Z,16.07
2022-10-20T15:23:07.639Z,16.12
2022-10-20T15:25:47.505Z,16.01
2022-10-20T15:28:23.532Z,15.76
2022-10-20T15:30:50.197Z,15.81
2022-10-20T15:33:16.629Z,15.77
2022-10-20T15:35:47.013Z,15.72
2022-10-20T15:38:14.386Z,15.65
2022-10-20T15:40:41.254Z,15.63
2022-10-20T15:43:11.930Z,15.52
2022-10-20T15:45:40.802Z,15.52
2022-10-20T15:48:07.229Z,15.44
2022-10-20T15:50:33.912Z,15.51
2022-10-20T15:53:00.342Z,15.55
2022-10-20T15:55:32.390Z,15.62
2022-10-20T15:57:59.025Z,15.62
2022-10-20T16:00:27.403Z,15.63
2022-10-20T16:02:55.566Z,15.47
2022-10-20T16:05:27.094Z,15.42
2022-10-20T16:07:54.446Z,15.38
2022-10-20T16:10:28.514Z,15.24
2022-10-20T16:12:55.328Z,15.24
2022-10-20T16:15:22.444Z,15.27
2022-10-20T16:20:21.850Z,15.35
2022-10-20T16:22:48.342Z,15.26
2022-10-20T16:25:14.741Z,15.33
2022-10-20T16:27:41.211Z,15.25
2022-10-20T16:30:08.575Z,15.23
2022-10-20T16:32:35.708Z,15.22
2022-10-20T16:35:04.264Z,15.19
2022-10-20T16:37:32.159Z,15.22
2022-10-20T16:39:59.528Z,15.19
2022-10-20T16:42:27.422Z,15.09
2022-10-20T16:44:53.866Z,15.05
2022-10-20T16:47:20.340Z,14.96
2022-10-20T16:49:46.755Z,14.96
2022-10-20T16:52:13.299Z,14.96
2022-10-20T16:57:12.720Z,14.85
2022-10-20T16:59:39.480Z,14.86
2022-10-20T17:02:06.227Z,14.86
2022-10-20T17:04:32.629Z,14.85
2022-10-20T17:06:59.149Z,14.86
2022-10-20T17:09:25.714Z,14.80
2022-10-20T17:11:52.220Z,14.88
2022-10-20T17:14:18.700Z,15.15
2022-10-20T17:16:47.211Z,15.66
2022-10-20T17:19:14.061Z,15.88
2022-10-20T17:21:40.541Z,15.67
2022-10-20T17:24:11.203Z,15.62
2022-10-20T17:26:38.353Z,15.27
2022-10-20T17:29:05.046Z,15.14
2022-10-20T17:31:31.708Z,14.87
2022-10-20T17:33:58.900Z,14.83
2022-10-20T17:36:26.477Z,14.82
2022-10-20T17:38:56.109Z,14.77
2022-10-20T17:41:22.838Z,14.79
2022-10-20T17:43:49.307Z,14.70
2022-10-20T17:46:17.743Z,14.79
2022-10-20T17:48:44.794Z,14.82
2022-10-20T17:51:20.531Z,14.83
2022-10-20T17:53:48.355Z,14.78
2022-10-20T17:56:16.157Z,14.79
2022-10-20T17:58:43.868Z,14.80
2022-10-20T18:01:17.030Z,14.78
2022-10-20T18:03:44.336Z,14.74
2022-10-20T18:06:19.328Z,14.75
2022-10-20T18:08:46.775Z,15.13
2022-10-20T18:11:18.978Z,15.65
2022-10-20T18:13:45.879Z,15.52
2022-10-20T18:16:14.306Z,15.51
2022-10-20T18:18:40.868Z,15.41
2022-10-20T18:21:12.480Z,15.19
2022-10-20T18:23:41.291Z,15.03
2022-10-20T18:26:19.071Z,15.05
2022-10-20T18:28:48.280Z,14.93
2022-10-20T18:31:23.296Z,14.92
2022-10-20T18:33:51.174Z,14.85
2022-10-20T18:36:18.760Z,14.94
2022-10-20T18:38:46.562Z,14.87
2022-10-20T18:41:24.799Z,14.92
2022-10-20T18:43:58.012Z,14.84
2022-10-20T18:46:26.524Z,14.78
2022-10-20T18:48:53.280Z,14.86
2022-10-20T18:51:19.713Z,14.84
2022-10-20T18:53:46.750Z,14.89
2022-10-20T18:56:14.351Z,14.78
2022-10-20T18:58:42.956Z,14.83
2022-10-20T19:01:12.572Z,14.88
2022-10-20T19:03:40.243Z,14.86
2022-10-20T19:06:27.752Z,15.14
2022-10-20T19:08:56.756Z,15.67
2022-10-20T19:11:25.463Z,15.44
2022-10-20T19:13:52.385Z,15.32
2022-10-20T19:16:20.937Z,15.16
2022-10-20T19:18:49.673Z,15.12
2022-10-20T19:21:17.096Z,15.17
2022-10-20T19:23:46.529Z,15.52
2022-10-20T19:26:28.269Z,15.53
2022-10-20T19:28:58.881Z,15.50
2022-10-20T19:31:50.467Z,15.55
2022-10-20T19:34:20.716Z,16.00
2022-10-20T19:36:47.310Z,15.91
2022-10-20T19:39:16.593Z,15.81
2022-10-20T19:41:43.180Z,15.58
2022-10-20T19:44:15.227Z,15.36
2022-10-20T19:46:42.992Z,15.36
2022-10-20T19:49:09.512Z,15.12
2022-10-20T19:51:36.105Z,15.21
2022-10-20T19:54:02.667Z,15.17
2022-10-20T19:56:29.135Z,15.11
2022-10-20T19:58:55.611Z,15.20
2022-10-20T20:01:22.099Z,15.30
2022-10-20T20:03:48.699Z,15.30
2022-10-20T20:06:18.791Z,15.29
2022-10-20T20:08:47.156Z,15.12
2022-10-20T20:11:23.374Z,14.99
2022-10-20T20:13:54.252Z,15.09
2022-10-20T20:16:21.490Z,15.03
2022-10-20T20:18:48.255Z,14.90
2022-10-20T20:21:15.074Z,14.60
2022-10-20T20:23:58.241Z,14.62
2022-10-20T20:26:27.379Z,14.54
2022-10-20T20:28:54.429Z,14.46
2022-10-20T20:31:21.744Z,14.40
2022-10-20T20:33:48.471Z,14.31
2022-10-20T20:36:14.873Z,14.25
2022-10-20T20:38:41.793Z,14.26
2022-10-20T20:41:12.243Z,14.24
2022-10-20T20:43:39.019Z,14.27
2022-10-20T20:46:10.700Z,14.22
2022-10-20T20:48:37.696Z,14.14
2022-10-20T20:51:04.760Z,14.11
2022-10-20T20:53:31.229Z,14.08
2022-10-20T20:56:00.270Z,14.11
2022-10-20T20:58:28.342Z,14.05
2022-10-20T21:01:08.702Z,13.88
2022-10-20T21:03:35.633Z,13.84
2022-10-20T21:06:10.023Z,13.89
2022-10-20T21:08:38.738Z,13.80
2022-10-20T21:11:13.255Z,13.80
2022-10-20T21:13:41.963Z,13.71
2022-10-20T21:16:13.968Z,13.66
2022-10-20T21:18:41.889Z,13.71
2022-10-20T21:23:43.714Z,13.74
2022-10-20T21:26:11.861Z,13.68
2022-10-20T21:28:38.677Z,13.70
2022-10-20T21:31:06.626Z,13.63
2022-10-20T21:33:33.856Z,13.67
2022-10-20T21:36:01.831Z,13.59
2022-10-20T21:38:32.445Z,13.57
2022-10-20T21:41:07.167Z,13.52
2022-10-20T21:43:35.233Z,13.62
2022-10-20T21:46:18.989Z,13.59
2022-10-20T21:48:46.799Z,13.49
2022-10-20T21:51:15.204Z,13.48
2022-10-20T21:53:41.968Z,13.56
2022-10-20T21:56:08.582Z,13.47
2022-10-20T21:58:35.942Z,13.50
2022-10-20T22:01:28.864Z,13.48
2022-10-20T22:03:55.635Z,13.38
2022-10-20T22:06:24.590Z,13.43
2022-10-20T22:08:53.834Z,13.46
2022-10-20T22:11:32.389Z,13.49
2022-10-20T22:13:59.052Z,13.52
2022-10-20T22:16:31.874Z,13.49
2022-10-20T22:19:03.034Z,13.50
2022-10-20T22:21:29.542Z,13.48
2022-10-20T22:23:57.100Z,13.47
2022-10-20T22:26:26.039Z,13.45
2022-10-20T22:28:52.598Z,13.48
2022-10-20T22:31:19.144Z,13.52
2022-10-20T22:33:45.613Z,13.54
2022-10-20T22:36:12.230Z,13.51
2022-10-20T22:38:38.666Z,13.57
2022-10-20T22:41:05.200Z,13.60
2022-10-20T22:43:31.774Z,13.52
2022-10-20T22:45:58.382Z,13.61
2022-10-20T22:48:25.060Z,13.66
2022-10-20T22:50:51.721Z,13.67
2022-10-20T22:53:18.314Z,13.68
2022-10-20T22:55:44.794Z,13.73
2022-10-20T22:58:11.419Z,13.80
2022-10-20T23:00:41.978Z,13.84
2022-10-20T23:03:08.476Z,13.89
2022-10-20T23:05:35.024Z,13.93
2022-10-20T23:08:01.537Z,13.87
2022-10-20T23:10:28.438Z,13.87
2022-10-20T23:12:54.834Z,13.97
2022-10-20T23:15:21.257Z,13.96
2022-10-20T23:17:47.712Z,14.08
2022-10-20T23:20:14.415Z,14.12
2022-10-20T23:22:40.866Z,14.21
2022-10-20T23:25:08.714Z,14.29
2022-10-20T23:27:35.984Z,14.32
2022-10-20T23:30:02.580Z,14.29
2022-10-20T23:32:29.005Z,14.26
2022-10-20T23:34:55.457Z,14.33
2022-10-20T23:37:23.560Z,14.31
2022-10-20T23:39:49.955Z,14.41
2022-10-20T23:42:17.525Z,14.47
2022-10-20T23:44:43.956Z,14.46
2022-10-20T23:47:10.440Z,14.48
2022-10-20T23:49:36.824Z,14.45
2022-10-20T23:52:03.270Z,14.43
2022-10-20T23:54:29.689Z,14.45
2022-10-20T23:56:56.158Z,14.52
2022-10-20T23:59:22.540Z,14.46
